WetterOnline ( http://www.wetteronline.de )

Wetter aktuell Giesensdorf

Aktuelles Wetter: Boizenburg (46m)

6-stündlich | Neueste Meldungen
Ortszeit Temperatur Wetter
Di, 13.11. 19:00 9.8° C wolkig
Di, 13.11. 13:00 12.0° C bewölkt
Di, 13.11. 7:00 9.7° C bedeckt
Di, 13.11. 1:00 9.6° C bewölkt
Mo, 12.11. 19:00 13.8° C bedeckt
Mo, 12.11. 13:00 10.6° C bedeckt
Mo, 12.11. 7:00 9.9° C wolkig
Mo, 12.11. 1:00 11.2° C Regen
Ortszeit Temperatur Wetter
Di, 13.11. 19:30 10.0° C bewölkt
Di, 13.11. 19:20 10.0° C bewölkt
Di, 13.11. 19:10 9.9° C bewölkt
Di, 13.11. 19:00 9.8° C wolkig
Di, 13.11. 18:50 9.8° C wolkig
Di, 13.11. 18:40 9.8° C bewölkt
Di, 13.11. 18:30 9.9° C wolkig
Di, 13.11. 18:00 9.7° C fast wolkenlos
Di, 13.11. 17:30 9.6° C wolkenlos
Di, 13.11. 17:00 9.4° C wolkenlos
Di, 13.11. 16:30 9.7° C leicht bewölkt
Ortszeit Relative Feuchte Sichtweite
Di, 13.11. 19:00 83% 35 km
Di, 13.11. 13:00 79% 15 km
Di, 13.11. 7:00 95% 6 km
Di, 13.11. 1:00 95% 9 km
Mo, 12.11. 19:00 87% 40 km
Mo, 12.11. 13:00 99% 9 km
Mo, 12.11. 7:00 94% 50 km
Mo, 12.11. 1:00 93% 35 km
Ortszeit Relative Feuchte Sichtweite
Di, 13.11. 19:30 82% 35 km
Di, 13.11. 19:20 82% -
Di, 13.11. 19:10 82% -
Di, 13.11. 19:00 83% 35 km
Di, 13.11. 18:50 83% -
Di, 13.11. 18:40 83% -
Di, 13.11. 18:30 83% 35 km
Di, 13.11. 18:00 84% 35 km
Di, 13.11. 17:30 86% 30 km
Di, 13.11. 17:00 89% 27 km
Di, 13.11. 16:30 89% 25 km
Ortszeit Niederschlagsmenge Niederschlagsart
Di, 13.11. 19:00 1 l/m2 in 12 Std. Regen
Di, 13.11. 13:00 0.1 l/m2 in 6 Std. Regen
Di, 13.11. 7:00 0.6 l/m2 in 12 Std. -
Di, 13.11. 1:00 0.6 l/m2 in 6 Std. Regen
Mo, 12.11. 19:00 1 l/m2 in 12 Std. -
Mo, 12.11. 13:00 1 l/m2 in 6 Std. Regen
Mo, 12.11. 7:00 1 l/m2 in 12 Std. Regen
Mo, 12.11. 1:00 1 l/m2 in 6 Std. Regen
Ortszeit Niederschlagsmenge Niederschlagsart
Di, 13.11. 19:30 0.0 l/m2 in 1 Std. -
Di, 13.11. 19:20 keine Meldung -
Di, 13.11. 19:10 keine Meldung -
Di, 13.11. 19:00 0.0 l/m2 in 1 Std. Regen
Di, 13.11. 18:50 keine Meldung -
Di, 13.11. 18:40 keine Meldung -
Di, 13.11. 18:30 0.0 l/m2 in 1 Std. -
Di, 13.11. 18:00 0.0 l/m2 in 1 Std. -
Di, 13.11. 17:30 0.0 l/m2 in 1 Std. -
Di, 13.11. 17:00 0.1 l/m2 in 1 Std. Regen
Di, 13.11. 16:30 0.1 l/m2 in 1 Std. Schneeregen
Ortszeit Stärke Spitze Richtung
km/h Bft. km/h Grad Sektor
Di, 13.11. 19:00 17 3 41 220° SW
Di, 13.11. 13:00 22 4 36 220° SW
Di, 13.11. 7:00 11 2 22 200° S
Di, 13.11. 1:00 11 2 36 230° SW
Mo, 12.11. 19:00 13 3 26 250° W
Mo, 12.11. 13:00 11 2 28 110° O
Mo, 12.11. 7:00 7 2 22 150° SO
Mo, 12.11. 1:00 11 2 32 170° S
Ortszeit Stärke Spitze Richtung
km/h Bft. km/h Grad Sektor
Di, 13.11. 19:30 18 3 29 230° SW
Di, 13.11. 19:20 18 3 - 230° SW
Di, 13.11. 19:10 18 3 - 230° SW
Di, 13.11. 19:00 17 3 28 220° SW
Di, 13.11. 18:50 17 3 - 220° SW
Di, 13.11. 18:40 17 3 - 220° SW
Di, 13.11. 18:30 14 3 29 220° SW
Di, 13.11. 18:00 14 3 29 220° SW
Di, 13.11. 17:30 14 3 29 220° SW
Di, 13.11. 17:00 13 3 24 220° SW
Di, 13.11. 16:30 14 3 25 230° SW
Ortszeit Untergrenze Bedeckung Gattung
total tief tief mittel hoch
Di, 13.11. 19:00 900 m 6/8 6/8 - - -
Di, 13.11. 13:00 540 m 7/8 7/8 - - -
Di, 13.11. 7:00 1800 m 8/8 8/8 - - -
Di, 13.11. 1:00 3600 m 8/8 7/8 - - -
Mo, 12.11. 19:00 1170 m 8/8 8/8 - - -
Mo, 12.11. 13:00 90 m 8/8 8/8 - - -
Mo, 12.11. 7:00 2100 m 8/8 1/8 - - -
Mo, 12.11. 1:00 1800 m 8/8 8/8 - - -
Ortszeit Bedeckungsgrad in Achtel und Wolkenuntergrenze
Di, 13.11. 19:30 5(990m) 6(1500m) 7(1500m)
Di, 13.11. 19:20 5(990m) 6(1500m) 7(1500m)
Di, 13.11. 19:10 5(990m) 7(1800m)
Di, 13.11. 19:00 1(900m) 4(1500m) 6(1800m)
Di, 13.11. 18:50 1(900m) 4(1500m) 6(1800m)
Di, 13.11. 18:40 2(900m) 7(1500m) 7(1800m)
Di, 13.11. 18:30 1(1140m) 4(1350m) 6(1800m)
Di, 13.11. 18:00 2(1800m)
Di, 13.11. 17:30 keine Wolken
Di, 13.11. 17:00 keine Wolken
Di, 13.11. 16:30 1(630m)
Ortszeit Luftdruck NN (hPa) Tendenz (hPa in 3 Std.)
Di, 13.11. 19:00 1023 + 2,0
Di, 13.11. 13:00 1020 + 0,3
Di, 13.11. 7:00 1019 + 0,6
Di, 13.11. 1:00 1018 + 1,5
Mo, 12.11. 19:00 1014 + 1,0
Mo, 12.11. 13:00 1014 - 0,9
Mo, 12.11. 7:00 1015 + 0,6
Mo, 12.11. 1:00 1013 + 1,5
Ortszeit Luftdruck NN (hPa) Tendenz (hPa in 3 Std.)
Di, 13.11. 19:30 1023 + 1,6
Di, 13.11. 19:20 1023 keine Meldung
Di, 13.11. 19:10 1023 keine Meldung
Di, 13.11. 19:00 1023 + 2,0
Di, 13.11. 18:50 1023 keine Meldung
Di, 13.11. 18:40 1023 keine Meldung
Di, 13.11. 18:30 1023 + 2,0
Di, 13.11. 18:00 1022 + 1,9
Di, 13.11. 17:30 1022 + 1,8
Di, 13.11. 17:00 1022 + 1,4
Di, 13.11. 16:30 1021 + 1,1
Ortszeit Schneehöhe (cm)
Di, 13.11. 19:00 0
Di, 13.11. 13:00 0
Di, 13.11. 7:00 0
Di, 13.11. 1:00 0
Mo, 12.11. 19:00 0
Mo, 12.11. 13:00 0
Mo, 12.11. 7:00 0
Mo, 12.11. 1:00 0
Ortszeit Schneehöhe (cm)
Di, 13.11. 19:30 0
Di, 13.11. 19:20 0
Di, 13.11. 19:10 0
Di, 13.11. 19:00 0
Di, 13.11. 18:50 0
Di, 13.11. 18:40 0
Di, 13.11. 18:30 0
Di, 13.11. 18:00 0
Di, 13.11. 17:30 0
Di, 13.11. 17:00 0
Di, 13.11. 16:30 0
Link zu dieser Seite / Seite empfehlen

Das Wetter in ...